Basom, New York
Current Conditions -  °F | °C
As of 10:54 PM on Wednesday 26 Nov 2014 (Local Time) from KBUF Reporting Station
Light Snow Light Snow  
Wind Chill: 22°   Ceiling: 3000
Heat Index: 30°   Visibility: 9mi
Dew Point: 24°   Wind: 8mph
Humidity: 79%   Direction: 50°NE
Pressure: 30.05"   Gusts: NA
Location:  43.07°N, 78.39°W
Report Text: KBUF 270354Z 05007KT 9SM -SN FEW020 BKN030 OVC045 M01/M04 A3005 RMK AO2 SLP185 P0000 T10111044
Loading
Personal Weather Stations






























Interactive Weather Map New forecast layout! Learn more

10-Day Weather Forecast

Advertisements
Track Severe Weather on mobile